Garrison, ND

4:48 PM CST on November 21, 2017 (GMT -0600)
Garrison | | Change Station

Elev 1926 ft 47.65 °N, 101.43 °W | Updated 56 minutes ago

Clear
Clear
14 °F
Feels Like -1 °F
N
14
Wind Variable Wind from NW

Today
High -- | Low -- °F
--% Chance of Precip.
Yesterday
High -- | Low -- °F
Precip. -- in
Pressure 30.45 in
Visibility -9999.0 miles
Clouds
Windchill -1 °F
Dew Point 5 °F
Humidity 67%
Rainfall 0.00 in
Snow Depth Not available.
8:00 AM 5:02 PM
Waxing Crescent, 11% visible
METAR KN60 212152Z AUTO 32012KT M10/M15 A3032 RMK AO1 SLP311 T11001150
Pressure 30.45 in
Visibility -9999.0 miles
Clouds
Windchill -1 °F
Dew Point 5 °F
Humidity 67%
Rainfall 0.00 in
Snow Depth Not available.
8:00 AM 5:02 PM
Waxing Crescent, 11% visible
METAR KN60 212152Z AUTO 32012KT M10/M15 A3032 RMK AO1 SLP311 T11001150

Get Severe Weather Alerts

Thanks for signing up!

Be on the lookout for a verification email in your inbox.

You'll start receiving the daily forecast at 6 AM.

×

10-Day Weather Forecast

Almanac

Astronomy

Nov. 21, 2017 Rise Set
Actual Time
Civil Twilight
Nautical Twilight
Astronomical Twilight
Moon
Length of Visible Light
Length of Day
Tomorrow will be .
, % of the Moon is Illuminated

Today's Extremes

State Highs State Lows

Community

WunderPhotos

Category 6

Welcome to Category 6. This is the collective home for Weather Underground's featured writeups by Dr. Jeff Masters (right), Bob Henson (left), Chris Burt, and other regular contributors.

Nearby

Air Quality

  Air Quality AQ Index Pollutant
Not available.

Snow Depth

Station Depth Elevation

Earthquake Activity

City Distance Mag. Time & Date
Minimum magnitude displayed is 2.5.

Coastal Water Temperatures

Place Temperature

Stations

Nearby Weather Stations

Station Location Temp. Windchill Dew Point Humidity Wind Precip. Elev Updated Type
                   

Watches & Warnings

There are currently no watches in effect.